Latest Coastal Weather Observations for Creal Reef

IDQ60701

Issued at 7:42 pm EST Wednesday 27 July 2016 (issued every 10 minutes, with the page automatically refreshed every 10 minutes)

About coastal observations | Map of coastal stations | Coastal observations for QLD | Marine services | Other Formats
Station Details ID: 200736 Name: CREAL REEF Lat: -20.53 Lon: 150.38 Height: 1.7 m
Data from the previous 72 hours. | See also: Recent months for locations in Queensland
Date/Time
EST
Temp
°C
Wind Pressure Rain since
9am
mm
Weather Cloud Vis
km
Sea
Height
m
Swell
Dir  Spd
kts
Gust
kts
hPa Trend Height
m
Period
s
Dir
27/07:30pm 23.0 SSE 15 19 - - - - - - - - - -
27/07:20pm 23.1 SSE 15 - - - - - - - - - - -
27/07:00pm 23.0 SSE 16 20 - - - - - - - - - -
27/06:30pm 22.8 SSE 17 20 - - - - - - - - - -
27/06:20pm 22.8 S 18 - - - - - - - - - - -
27/06:00pm 22.9 SSE 18 22 - - - - - - - - - -
27/05:30pm 22.9 S 17 19 - - - - - - - - - -
27/05:20pm 22.9 S 17 - - - - - - - - - - -
27/05:00pm 23.1 S 17 19 - - - - - - - - - -
27/04:30pm 23.0 S 16 19 - - - - - - - - - -
27/04:20pm 23.0 S 16 - - - - - - - - - - -
27/04:00pm 23.1 S 17 20 - - - - - - - - - -
27/03:30pm 23.1 SSE 16 19 - - - - - - - - - -
27/03:20pm 23.1 SSE 13 - - - - - - - - - - -
27/03:00pm 23.2 SSE 13 17 - - - - - - - - - -
27/02:30pm 23.1 S 14 17 - - - - - - - - - -
27/02:20pm 23.2 SSE 13 - - - - - - - - - - -
27/02:00pm 23.2 S 14 16 - - - - - - - - - -
27/01:30pm 23.2 S 15 17 - - - - - - - - - -
27/01:20pm 23.4 S 15 - - - - - - - - - - -
27/01:00pm 23.3 S 15 16 - - - - - - - - - -
27/12:30pm 23.5 SSE 12 15 - - - - - - - - - -
27/12:20pm 23.4 SSE 13 - - - - - - - - - - -
27/12:00pm 23.5 S 14 16 - - - - - - - - - -
27/11:30am 23.6 SSE 13 15 - - - - - - - - - -
27/11:00am 23.3 SSE 14 15 - - - - - - - - - -
27/10:30am 23.3 S 15 17 - - - - - - - - - -
27/10:20am 23.3 SSE 16 - - - - - - - - - - -
27/10:00am 23.3 SSE 14 18 - - - - - - - - - -
27/09:30am 23.2 SSE 15 18 - - - - - - - - - -
27/09:20am 23.3 SSE 14 - - - - - - - - - - -
27/09:00am 23.3 S 16 19 - - - - - - - - - -
27/08:30am 23.3 S 16 18 - - - - - - - - - -
27/08:00am 23.3 SSE 14 17 - - - - - - - - - -
27/07:30am 23.3 SSE 15 18 - - - - - - - - - -
27/07:20am 23.2 SSE 15 - - - - - - - - - - -
27/07:00am 23.1 SSE 14 17 - - - - - - - - - -
27/06:30am 23.1 SSE 14 16 - - - - - - - - - -
27/06:20am 23.0 SSE 14 - - - - - - - - - - -
27/06:00am 23.1 SSE 15 16 - - - - - - - - - -
27/05:30am 23.0 SSE 14 17 - - - - - - - - - -
27/05:20am 22.9 SSE 14 - - - - - - - - - - -
27/05:00am 23.2 S 16 18 - - - - - - - - - -
27/04:30am 23.1 S 15 18 - - - - - - - - - -
27/04:20am 23.1 S 15 - - - - - - - - - - -
27/04:00am 23.1 SSE 14 17 - - - - - - - - - -
27/03:30am 23.2 S 15 17 - - - - - - - - - -
27/03:20am 23.2 SSE 13 - - - - - - - - - - -
27/03:00am 23.1 SSE 12 14 - - - - - - - - - -
27/02:30am 23.0 SSE 12 14 - - - - - - - - - -
27/02:20am 23.0 SE 12 - - - - - - - - - - -
27/02:00am 23.1 SE 13 16 - - - - - - - - - -
27/01:30am 23.0 SE 13 15 - - - - - - - - - -
27/01:20am 23.1 SE 13 - - - - - - - - - - -
27/01:00am 23.0 SE 13 15 - - - - - - - - - -
27/12:30am 23.0 SE 14 16 - - - - - - - - - -
27/12:20am 23.0 SE 14 - - - - - - - - - - -
27/12:00am 23.1 SE 14 16 - - - - - - - - - -
 
Date/Time
EST
Temp
°C
Wind Pressure Rain since
9am
mm
Weather Cloud Vis
km
Sea
Height
m
Swell
Dir  Spd
kts
Gust
kts
hPa Trend Height
m
Period
s
Dir
26/11:30pm 22.9 SSE 14 17 - - - - - - - - - -
26/11:20pm 23.0 SSE 14 - - - - - - - - - - -
26/11:00pm 22.8 SSE 13 16 - - - - - - - - - -
26/10:30pm 22.8 SSE 13 17 - - - - - - - - - -
26/10:20pm 22.8 SSE 14 - - - - - - - - - - -
26/10:00pm 22.8 SSE 14 18 - - - - - - - - - -
26/09:30pm 22.9 SSE 14 17 - - - - - - - - - -
26/09:20pm 22.8 SSE 15 - - - - - - - - - - -
26/09:00pm 22.9 SSE 16 19 - - - - - - - - - -
26/08:30pm 22.8 SSE 15 19 - - - - - - - - - -
26/08:20pm 22.8 SSE 16 - - - - - - - - - - -
26/08:00pm 22.9 SSE 16 20 - - - - - - - - - -
26/07:30pm 22.9 SSE 18 21 - - - - - - - - - -
26/07:20pm 22.9 SSE 17 - - - - - - - - - - -
26/07:00pm 22.9 SSE 17 20 - - - - - - - - - -
26/06:30pm 23.0 SSE 18 21 - - - - - - - - - -
26/06:20pm 23.0 S 17 - - - - - - - - - - -
26/06:00pm 23.0 S 16 19 - - - - - - - - - -
26/05:30pm 23.1 SSE 14 17 - - - - - - - - - -
26/05:20pm 23.2 SSE 14 - - - - - - - - - - -
26/05:00pm 23.2 SSE 14 16 - - - - - - - - - -
26/04:30pm 23.3 SSE 14 17 - - - - - - - - - -
26/04:20pm 23.3 SSE 13 - - - - - - - - - - -
26/04:00pm 23.4 SSE 13 16 - - - - - - - - - -
26/03:30pm 23.4 SSE 12 15 - - - - - - - - - -
26/03:20pm 23.6 SSE 12 - - - - - - - - - - -
26/03:00pm 23.7 SSE 11 13 - - - - - - - - - -
26/02:30pm 23.5 SSE 11 14 - - - - - - - - - -
26/02:20pm 23.6 SSE 11 - - - - - - - - - - -
26/02:00pm 23.4 SSE 12 14 - - - - - - - - - -
26/01:30pm 23.4 SSE 12 14 - - - - - - - - - -
26/01:20pm 23.5 SSE 11 - - - - - - - - - - -
26/01:00pm 23.5 SE 10 13 - - - - - - - - - -
26/12:30pm 23.5 SSE 11 13 - - - - - - - - - -
26/12:20pm 23.4 SSE 12 - - - - - - - - - - -
26/12:00pm 23.4 SSE 11 14 - - - - - - - - - -
26/11:30am 23.4 SSE 11 14 - - - - - - - - - -
26/11:20am 23.6 SSE 10 - - - - - - - - - - -
26/11:00am 23.5 SSE 11 13 - - - - - - - - - -
26/10:30am 23.5 SSE 12 15 - - - - - - - - - -
26/10:20am 23.5 SSE 12 - - - - - - - - - - -
26/10:00am 23.5 SSE 12 15 - - - - - - - - - -
26/09:20am 23.4 SSE 13 - - - - - - - - - - -
26/09:00am 23.4 SSE 13 15 - - - - - - - - - -
26/08:30am 23.3 SSE 13 15 - - - - - - - - - -
26/08:00am 23.5 SSE 12 14 - - - - - - - - - -
26/07:30am 23.3 SE 13 15 - - - - - - - - - -
26/07:20am 23.3 SE 13 - - - - - - - - - - -
26/07:00am 23.2 SE 13 14 - - - - - - - - - -
26/06:30am 23.1 SE 13 15 - - - - - - - - - -
 
Date/Time
EST
Temp
°C
Wind Pressure Rain since
9am
mm
Weather Cloud Vis
km
Sea
Height
m
Swell
Dir  Spd
kts
Gust
kts
hPa Trend Height
m
Period
s
Dir
25/08:00pm 22.9 S 12 14 - - - - - - - - - -
25/07:30pm 22.9 S 10 12 - - - - - - - - - -
25/07:20pm 22.9 S 9 - - - - - - - - - - -
25/07:00pm 23.0 SSE 8 10 - - - - - - - - - -
25/06:30pm 23.0 S 9 11 - - - - - - - - - -
25/06:20pm 22.9 S 9 - - - - - - - - - - -
25/06:00pm 22.8 SSE 9 11 - - - - - - - - - -
25/05:30pm 22.9 S 10 11 - - - - - - - - - -
25/05:20pm 23.0 S 10 - - - - - - - - - - -
25/05:00pm 23.1 S 11 13 - - - - - - - - - -
25/04:30pm 23.2 S 9 12 - - - - - - - - - -
25/04:20pm 23.4 S 7 - - - - - - - - - - -
25/04:00pm 23.5 S 7 9 - - - - - - - - - -
25/03:30pm 23.5 S 7 9 - - - - - - - - - -
25/03:20pm 23.5 S 7 - - - - - - - - - - -
25/03:00pm 23.5 S 7 8 - - - - - - - - - -
25/02:30pm 23.6 S 6 7 - - - - - - - - - -
25/02:20pm 23.6 SSW 6 - - - - - - - - - - -
25/02:00pm 23.5 SSW 6 7 - - - - - - - - - -
25/01:30pm 23.7 SSW 7 9 - - - - - - - - - -
25/01:20pm 23.6 SSW 7 - - - - - - - - - - -
25/01:00pm 23.9 SSW 7 8 - - - - - - - - - -
25/12:30pm 23.7 SSW 7 9 - - - - - - - - - -
25/12:20pm 23.9 SSW 7 - - - - - - - - - - -
25/12:00pm 23.9 SSW 7 8 - - - - - - - - - -
25/11:30am 24.5 SSW 6 7 - - - - - - - - - -
25/11:20am 24.3 SSW 6 - - - - - - - - - - -
25/11:00am 24.7 SSW 6 7 - - - - - - - - - -
25/10:30am 24.7 SSW 7 8 - - - - - - - - - -
25/10:20am 24.8 SSW 6 - - - - - - - - - - -
25/10:00am 24.0 SSW 5 6 - - - - - - - - - -
25/09:30am 25.2 SSW 3 5 - - - - - - - - - -
25/09:20am 24.8 SSW 4 - - - - - - - - - - -
25/09:00am 26.2 CALM 0 0 - - - - - - - - - -
25/08:30am 25.5 CALM 0 0 - - - - - - - - - -
25/08:20am 25.4 CALM 0 - - - - - - - - - - -
25/08:00am 24.5 - 1 3 - - - - - - - - - -
25/07:30am 23.5 NNE 4 6 - - - - - - - - - -
25/07:20am 23.6 - - - - - - - - - - - - -
25/07:00am 23.5 NE 4 5 - - - - - - - - - -
25/06:30am 23.0 NE 3 4 - - - - - - - - - -
25/06:20am 23.0 NE 3 - - - - - - - - - - -
25/06:00am 23.0 NNE 3 4 - - - - - - - - - -
25/05:30am 23.1 NE 4 6 - - - - - - - - - -
25/05:20am 23.1 NE 4 - - - - - - - - - - -
25/05:00am 23.1 NE 6 8 - - - - - - - - - -
25/04:30am 23.0 NE 7 8 - - - - - - - - - -
25/04:20am 23.1 NNE 7 - - - - - - - - - - -
25/04:00am 23.0 NE 8 9 - - - - - - - - - -
25/03:30am 23.0 NE 7 9 - - - - - - - - - -
25/03:20am 23.1 NNE 7 - - - - - - - - - - -
25/03:00am 23.0 NE 7 8 - - - - - - - - - -
25/02:30am 23.0 NE 6 7 - - - - - - - - - -
25/02:20am 22.9 NE 6 - - - - - - - - - - -
25/02:00am 22.9 NE 7 9 - - - - - - - - - -
25/01:30am 23.0 NE 7 9 - - - - - - - - - -
25/01:20am 22.9 NE 8 - - - - - - - - - - -
25/01:00am 23.0 ENE 9 10 - - - - - - - - - -
25/12:30am 22.9 ENE 8 10 - - - - - - - - - -
25/12:20am 22.9 ENE 9 - - - - - - - - - - -
25/12:00am 23.0 ENE 8 9 - - - - - - - - - -
 
Date/Time
EST
Temp
°C
Wind Pressure Rain since
9am
mm
Weather Cloud Vis
km
Sea
Height
m
Swell
Dir  Spd
kts
Gust
kts
hPa Trend Height
m
Period
s
Dir
24/11:30pm 23.0 ENE 8 10 - - - - - - - - - -
24/11:20pm 23.1 ENE 8 - - - - - - - - - - -
24/11:00pm 23.0 ENE 9 11 - - - - - - - - - -
24/10:30pm 23.1 ENE 8 9 - - - - - - - - - -
24/10:20pm 23.0 ENE 7 - - - - - - - - - - -
24/10:00pm 23.1 E 6 7 - - - - - - - - - -
24/09:30pm 23.0 ENE 7 8 - - - - - - - - - -
24/09:20pm 23.0 ENE 7 - - - - - - - - - - -
24/09:00pm 23.0 E 6 7 - - - - - - - - - -
24/08:30pm 22.9 E 5 5 - - - - - - - - - -
24/08:20pm 22.9 ESE 4 - - - - - - - - - - -
24/08:00pm 22.9 SSE 3 5 - - - - - - - - - -

Other Formats:

Comma delimited format used in spreadsheet applications
http://www.bom.gov.au/fwo/IDQ60701/IDQ60701.94371.axf

JavaScript Object Notation format (JSON) in row-major order
http://www.bom.gov.au/fwo/IDQ60701/IDQ60701.94371.json